sensor_id;sensor_type;location;lat;lon;timestamp;temperature;humidity
20070;DHT22;10195;50.868;4.382;2023-01-31T00:01:38;6.00;99.90
20070;DHT22;10195;50.868;4.382;2023-01-31T00:04:06;6.00;99.90
20070;DHT22;10195;50.868;4.382;2023-01-31T00:06:43;6.00;99.90
20070;DHT22;10195;50.868;4.382;2023-01-31T00:09:10;5.90;99.90
20070;DHT22;10195;50.868;4.382;2023-01-31T00:11:36;5.90;99.90
20070;DHT22;10195;50.868;4.382;2023-01-31T00:14:03;5.90;99.90
20070;DHT22;10195;50.868;4.382;2023-01-31T00:16:29;5.90;99.90
20070;DHT22;10195;50.868;4.382;2023-01-31T00:18:55;5.80;99.90
20070;DHT22;10195;50.868;4.382;2023-01-31T00:21:26;5.80;99.90
20070;DHT22;10195;50.868;4.382;2023-01-31T00:23:53;5.70;99.90
20070;DHT22;10195;50.868;4.382;2023-01-31T00:26:25;5.70;99.90
20070;DHT22;10195;50.868;4.382;2023-01-31T00:28:52;5.70;99.90
20070;DHT22;10195;50.868;4.382;2023-01-31T00:31:19;5.60;99.90
20070;DHT22;10195;50.868;4.382;2023-01-31T00:33:46;5.60;99.90
20070;DHT22;10195;50.868;4.382;2023-01-31T00:36:15;5.60;99.90
20070;DHT22;10195;50.868;4.382;2023-01-31T00:38:40;5.60;99.90
20070;DHT22;10195;50.868;4.382;2023-01-31T00:41:07;5.60;99.90
20070;DHT22;10195;50.868;4.382;2023-01-31T00:43:33;5.60;99.90
20070;DHT22;10195;50.868;4.382;2023-01-31T00:45:59;5.60;99.90
20070;DHT22;10195;50.868;4.382;2023-01-31T00:48:25;5.60;99.90
20070;DHT22;10195;50.868;4.382;2023-01-31T00:50:51;5.40;99.90
20070;DHT22;10195;50.868;4.382;2023-01-31T00:53:17;5.40;99.90
20070;DHT22;10195;50.868;4.382;2023-01-31T00:55:55;5.40;99.90
20070;DHT22;10195;50.868;4.382;2023-01-31T00:58:21;5.40;99.90
20070;DHT22;10195;50.868;4.382;2023-01-31T01:00:47;5.40;99.90
20070;DHT22;10195;50.868;4.382;2023-01-31T01:03:13;5.40;99.90
20070;DHT22;10195;50.868;4.382;2023-01-31T01:05:39;5.40;99.90
20070;DHT22;10195;50.868;4.382;2023-01-31T01:08:05;5.30;99.90
20070;DHT22;10195;50.868;4.382;2023-01-31T01:10:32;5.30;99.90
20070;DHT22;10195;50.868;4.382;2023-01-31T01:12:58;5.30;99.90
20070;DHT22;10195;50.868;4.382;2023-01-31T01:15:23;5.30;99.90
20070;DHT22;10195;50.868;4.382;2023-01-31T01:17:49;5.30;99.90
20070;DHT22;10195;50.868;4.382;2023-01-31T01:20:15;5.30;99.90
20070;DHT22;10195;50.868;4.382;2023-01-31T01:22:41;5.20;99.90
20070;DHT22;10195;50.868;4.382;2023-01-31T01:25:08;5.20;99.90
20070;DHT22;10195;50.868;4.382;2023-01-31T01:27:33;5.10;99.90
20070;DHT22;10195;50.868;4.382;2023-01-31T01:29:59;5.00;99.90
20070;DHT22;10195;50.868;4.382;2023-01-31T01:32:26;4.90;99.90
20070;DHT22;10195;50.868;4.382;2023-01-31T01:34:52;4.90;99.90
20070;DHT22;10195;50.868;4.382;2023-01-31T01:37:18;4.80;99.90
20070;DHT22;10195;50.868;4.382;2023-01-31T01:39:50;4.80;99.90
20070;DHT22;10195;50.868;4.382;2023-01-31T01:42:19;4.80;99.90
20070;DHT22;10195;50.868;4.382;2023-01-31T01:44:47;4.80;99.90
20070;DHT22;10195;50.868;4.382;2023-01-31T01:49:42;4.90;99.90
20070;DHT22;10195;50.868;4.382;2023-01-31T01:52:10;5.10;99.90
20070;DHT22;10195;50.868;4.382;2023-01-31T01:54:45;4.90;99.90
20070;DHT22;10195;50.868;4.382;2023-01-31T01:57:17;4.90;99.90
20070;DHT22;10195;50.868;4.382;2023-01-31T01:59:50;4.90;99.90
20070;DHT22;10195;50.868;4.382;2023-01-31T02:02:17;4.90;99.90
20070;DHT22;10195;50.868;4.382;2023-01-31T02:04:44;4.90;99.90
20070;DHT22;10195;50.868;4.382;2023-01-31T02:07:12;4.90;99.90
20070;DHT22;10195;50.868;4.382;2023-01-31T02:09:41;4.80;99.90
20070;DHT22;10195;50.868;4.382;2023-01-31T02:12:09;4.80;99.90
20070;DHT22;10195;50.868;4.382;2023-01-31T02:14:36;4.70;99.90
20070;DHT22;10195;50.868;4.382;2023-01-31T02:17:01;4.70;99.90
20070;DHT22;10195;50.868;4.382;2023-01-31T02:22:22;4.70;99.90
20070;DHT22;10195;50.868;4.382;2023-01-31T02:35:48;4.50;99.90
20070;DHT22;10195;50.868;4.382;2023-01-31T02:48:05;4.40;99.90
20070;DHT22;10195;50.868;4.382;2023-01-31T02:52:58;4.40;99.90
20070;DHT22;10195;50.868;4.382;2023-01-31T02:58:12;4.40;99.90
20070;DHT22;10195;50.868;4.382;2023-01-31T03:00:40;4.30;99.90
20070;DHT22;10195;50.868;4.382;2023-01-31T03:03:19;4.30;99.90
20070;DHT22;10195;50.868;4.382;2023-01-31T03:09:17;4.30;99.90
20070;DHT22;10195;50.868;4.382;2023-01-31T03:14:58;4.20;99.90
20070;DHT22;10195;50.868;4.382;2023-01-31T03:20:21;4.10;99.90
20070;DHT22;10195;50.868;4.382;2023-01-31T03:22:50;4.10;99.90
20070;DHT22;10195;50.868;4.382;2023-01-31T03:25:20;4.10;99.90
20070;DHT22;10195;50.868;4.382;2023-01-31T03:27:53;4.10;99.90
20070;DHT22;10195;50.868;4.382;2023-01-31T03:30:38;4.10;99.90
20070;DHT22;10195;50.868;4.382;2023-01-31T03:33:25;4.20;99.90
20070;DHT22;10195;50.868;4.382;2023-01-31T03:41:51;4.00;99.90
20070;DHT22;10195;50.868;4.382;2023-01-31T03:49:53;3.90;99.90
20070;DHT22;10195;50.868;4.382;2023-01-31T03:52:25;3.90;99.90
20070;DHT22;10195;50.868;4.382;2023-01-31T03:54:59;4.00;99.90
20070;DHT22;10195;50.868;4.382;2023-01-31T03:57:37;3.90;99.90
20070;DHT22;10195;50.868;4.382;2023-01-31T04:00:08;4.00;99.90
20070;DHT22;10195;50.868;4.382;2023-01-31T04:02:38;4.00;99.90
20070;DHT22;10195;50.868;4.382;2023-01-31T04:05:11;4.10;99.90
20070;DHT22;10195;50.868;4.382;2023-01-31T04:07:39;4.00;99.90
20070;DHT22;10195;50.868;4.382;2023-01-31T04:10:10;4.00;99.90
20070;DHT22;10195;50.868;4.382;2023-01-31T04:12:37;4.00;99.90
20070;DHT22;10195;50.868;4.382;2023-01-31T04:15:06;3.90;99.90
20070;DHT22;10195;50.868;4.382;2023-01-31T04:17:32;4.00;99.90
20070;DHT22;10195;50.868;4.382;2023-01-31T04:19:58;4.00;99.90
20070;DHT22;10195;50.868;4.382;2023-01-31T04:22:24;4.00;99.90
20070;DHT22;10195;50.868;4.382;2023-01-31T04:24:49;3.90;99.90
20070;DHT22;10195;50.868;4.382;2023-01-31T04:27:15;4.00;99.90
20070;DHT22;10195;50.868;4.382;2023-01-31T04:29:41;4.00;99.90
20070;DHT22;10195;50.868;4.382;2023-01-31T04:32:06;4.00;99.90
20070;DHT22;10195;50.868;4.382;2023-01-31T04:34:32;3.90;99.90
20070;DHT22;10195;50.868;4.382;2023-01-31T04:36:58;3.90;99.90
20070;DHT22;10195;50.868;4.382;2023-01-31T04:39:23;3.90;99.90
20070;DHT22;10195;50.868;4.382;2023-01-31T04:41:49;3.90;99.90
20070;DHT22;10195;50.868;4.382;2023-01-31T04:44:14;3.90;99.90
20070;DHT22;10195;50.868;4.382;2023-01-31T04:46:41;3.90;99.90
20070;DHT22;10195;50.868;4.382;2023-01-31T04:49:07;3.90;99.90
20070;DHT22;10195;50.868;4.382;2023-01-31T04:51:33;3.90;99.90
20070;DHT22;10195;50.868;4.382;2023-01-31T04:53:59;3.90;99.90
20070;DHT22;10195;50.868;4.382;2023-01-31T04:56:25;3.90;99.90
20070;DHT22;10195;50.868;4.382;2023-01-31T04:58:50;4.00;99.90
20070;DHT22;10195;50.868;4.382;2023-01-31T05:01:16;4.00;99.90
20070;DHT22;10195;50.868;4.382;2023-01-31T05:03:42;4.10;99.90
20070;DHT22;10195;50.868;4.382;2023-01-31T05:06:07;4.10;99.90
20070;DHT22;10195;50.868;4.382;2023-01-31T05:08:33;4.10;99.90
20070;DHT22;10195;50.868;4.382;2023-01-31T05:11:00;4.10;99.90
20070;DHT22;10195;50.868;4.382;2023-01-31T05:13:27;4.10;99.90
20070;DHT22;10195;50.868;4.382;2023-01-31T05:15:54;4.00;99.90
20070;DHT22;10195;50.868;4.382;2023-01-31T05:18:22;4.00;99.90
20070;DHT22;10195;50.868;4.382;2023-01-31T05:20:48;4.00;99.90
20070;DHT22;10195;50.868;4.382;2023-01-31T05:23:15;4.10;99.90
20070;DHT22;10195;50.868;4.382;2023-01-31T05:25:42;4.10;99.90
20070;DHT22;10195;50.868;4.382;2023-01-31T05:28:08;4.10;99.90
20070;DHT22;10195;50.868;4.382;2023-01-31T05:30:35;4.10;99.90
20070;DHT22;10195;50.868;4.382;2023-01-31T05:33:01;4.10;99.90
20070;DHT22;10195;50.868;4.382;2023-01-31T05:35:26;4.10;99.90
20070;DHT22;10195;50.868;4.382;2023-01-31T05:37:55;4.30;99.90
20070;DHT22;10195;50.868;4.382;2023-01-31T05:40:22;4.20;99.90
20070;DHT22;10195;50.868;4.382;2023-01-31T05:42:55;4.30;99.90
20070;DHT22;10195;50.868;4.382;2023-01-31T05:45:21;4.30;99.90
20070;DHT22;10195;50.868;4.382;2023-01-31T05:47:48;4.20;99.90
20070;DHT22;10195;50.868;4.382;2023-01-31T05:50:14;4.30;99.90
20070;DHT22;10195;50.868;4.382;2023-01-31T05:52:40;4.20;99.90
20070;DHT22;10195;50.868;4.382;2023-01-31T05:55:06;4.30;99.90
20070;DHT22;10195;50.868;4.382;2023-01-31T05:57:32;4.40;99.90
20070;DHT22;10195;50.868;4.382;2023-01-31T05:59:57;4.40;99.90
20070;DHT22;10195;50.868;4.382;2023-01-31T06:02:23;4.50;99.90
20070;DHT22;10195;50.868;4.382;2023-01-31T06:04:48;4.40;99.90
20070;DHT22;10195;50.868;4.382;2023-01-31T06:07:14;4.30;99.90
20070;DHT22;10195;50.868;4.382;2023-01-31T06:09:40;4.40;99.90
20070;DHT22;10195;50.868;4.382;2023-01-31T06:12:11;4.40;99.90
20070;DHT22;10195;50.868;4.382;2023-01-31T06:14:37;4.30;99.90
20070;DHT22;10195;50.868;4.382;2023-01-31T06:17:04;4.30;99.90
20070;DHT22;10195;50.868;4.382;2023-01-31T06:19:30;4.30;99.90
20070;DHT22;10195;50.868;4.382;2023-01-31T06:21:56;4.40;99.90
20070;DHT22;10195;50.868;4.382;2023-01-31T06:24:21;4.40;99.90
20070;DHT22;10195;50.868;4.382;2023-01-31T06:26:47;4.40;99.90
20070;DHT22;10195;50.868;4.382;2023-01-31T06:29:13;4.40;99.90
20070;DHT22;10195;50.868;4.382;2023-01-31T06:31:38;4.40;99.90
20070;DHT22;10195;50.868;4.382;2023-01-31T06:34:07;4.50;99.90
20070;DHT22;10195;50.868;4.382;2023-01-31T06:36:33;4.40;99.90
20070;DHT22;10195;50.868;4.382;2023-01-31T06:38:59;4.40;99.90
20070;DHT22;10195;50.868;4.382;2023-01-31T06:41:24;4.50;99.90
20070;DHT22;10195;50.868;4.382;2023-01-31T06:43:50;4.50;99.90
20070;DHT22;10195;50.868;4.382;2023-01-31T06:46:16;4.60;99.90
20070;DHT22;10195;50.868;4.382;2023-01-31T06:48:42;4.60;99.90
20070;DHT22;10195;50.868;4.382;2023-01-31T06:51:08;4.60;99.90
20070;DHT22;10195;50.868;4.382;2023-01-31T06:53:34;4.60;99.90
20070;DHT22;10195;50.868;4.382;2023-01-31T06:56:00;4.50;99.90
20070;DHT22;10195;50.868;4.382;2023-01-31T06:58:26;4.60;99.90
20070;DHT22;10195;50.868;4.382;2023-01-31T07:00:52;4.60;99.90
20070;DHT22;10195;50.868;4.382;2023-01-31T07:03:18;4.60;99.90
20070;DHT22;10195;50.868;4.382;2023-01-31T07:05:46;4.60;99.90
20070;DHT22;10195;50.868;4.382;2023-01-31T07:08:13;4.70;99.90
20070;DHT22;10195;50.868;4.382;2023-01-31T07:10:39;4.70;99.90
20070;DHT22;10195;50.868;4.382;2023-01-31T07:13:05;4.80;99.90
20070;DHT22;10195;50.868;4.382;2023-01-31T07:15:30;4.80;99.90
20070;DHT22;10195;50.868;4.382;2023-01-31T07:17:59;4.80;99.90
20070;DHT22;10195;50.868;4.382;2023-01-31T07:20:25;4.80;99.90
20070;DHT22;10195;50.868;4.382;2023-01-31T07:22:55;4.80;99.90
20070;DHT22;10195;50.868;4.382;2023-01-31T07:25:21;4.80;99.90
20070;DHT22;10195;50.868;4.382;2023-01-31T07:27:47;4.80;99.90
20070;DHT22;10195;50.868;4.382;2023-01-31T07:30:12;4.90;99.90
20070;DHT22;10195;50.868;4.382;2023-01-31T07:32:38;4.90;99.90
20070;DHT22;10195;50.868;4.382;2023-01-31T07:35:04;5.00;99.90
20070;DHT22;10195;50.868;4.382;2023-01-31T07:37:30;5.10;99.90
20070;DHT22;10195;50.868;4.382;2023-01-31T07:39:56;5.10;99.90
20070;DHT22;10195;50.868;4.382;2023-01-31T07:42:21;5.20;99.90
20070;DHT22;10195;50.868;4.382;2023-01-31T07:44:47;5.20;99.90
20070;DHT22;10195;50.868;4.382;2023-01-31T07:47:12;5.20;99.90
20070;DHT22;10195;50.868;4.382;2023-01-31T07:49:38;5.20;99.90
20070;DHT22;10195;50.868;4.382;2023-01-31T07:52:04;5.20;99.90
20070;DHT22;10195;50.868;4.382;2023-01-31T07:54:30;5.20;99.90
20070;DHT22;10195;50.868;4.382;2023-01-31T07:56:55;5.30;99.90
20070;DHT22;10195;50.868;4.382;2023-01-31T07:59:21;5.30;99.90
20070;DHT22;10195;50.868;4.382;2023-01-31T08:01:47;5.40;99.90
20070;DHT22;10195;50.868;4.382;2023-01-31T08:04:33;5.30;99.90
20070;DHT22;10195;50.868;4.382;2023-01-31T08:06:59;5.40;99.90
20070;DHT22;10195;50.868;4.382;2023-01-31T08:09:27;5.40;99.90
20070;DHT22;10195;50.868;4.382;2023-01-31T08:11:53;5.40;99.90
20070;DHT22;10195;50.868;4.382;2023-01-31T08:14:19;5.40;99.90
20070;DHT22;10195;50.868;4.382;2023-01-31T08:16:50;5.40;99.90
20070;DHT22;10195;50.868;4.382;2023-01-31T08:19:16;5.40;99.90
20070;DHT22;10195;50.868;4.382;2023-01-31T08:21:42;5.50;99.90
20070;DHT22;10195;50.868;4.382;2023-01-31T08:24:08;5.50;99.90
20070;DHT22;10195;50.868;4.382;2023-01-31T08:26:33;5.50;99.90
20070;DHT22;10195;50.868;4.382;2023-01-31T08:28:59;5.50;99.90
20070;DHT22;10195;50.868;4.382;2023-01-31T08:31:26;5.60;99.90
20070;DHT22;10195;50.868;4.382;2023-01-31T08:33:54;5.60;99.90
20070;DHT22;10195;50.868;4.382;2023-01-31T08:36:27;5.80;99.90
20070;DHT22;10195;50.868;4.382;2023-01-31T08:38:55;5.90;99.90
20070;DHT22;10195;50.868;4.382;2023-01-31T08:41:23;6.00;99.90
20070;DHT22;10195;50.868;4.382;2023-01-31T08:43:49;6.10;99.90
20070;DHT22;10195;50.868;4.382;2023-01-31T08:46:16;6.30;99.90
20070;DHT22;10195;50.868;4.382;2023-01-31T08:48:42;6.40;99.90
20070;DHT22;10195;50.868;4.382;2023-01-31T08:51:10;6.40;99.90
20070;DHT22;10195;50.868;4.382;2023-01-31T08:53:37;6.40;99.90
20070;DHT22;10195;50.868;4.382;2023-01-31T08:56:05;6.30;99.90
20070;DHT22;10195;50.868;4.382;2023-01-31T08:58:32;6.20;99.90
20070;DHT22;10195;50.868;4.382;2023-01-31T09:01:02;6.30;99.90
20070;DHT22;10195;50.868;4.382;2023-01-31T09:03:29;6.40;99.90
20070;DHT22;10195;50.868;4.382;2023-01-31T09:05:58;6.40;99.90
20070;DHT22;10195;50.868;4.382;2023-01-31T09:08:24;6.60;99.90
20070;DHT22;10195;50.868;4.382;2023-01-31T09:10:54;6.70;99.90
20070;DHT22;10195;50.868;4.382;2023-01-31T09:13:21;6.70;99.90
20070;DHT22;10195;50.868;4.382;2023-01-31T09:15:55;6.80;99.90
20070;DHT22;10195;50.868;4.382;2023-01-31T09:18:21;7.00;99.90
20070;DHT22;10195;50.868;4.382;2023-01-31T09:20:47;7.20;99.90
20070;DHT22;10195;50.868;4.382;2023-01-31T09:23:12;7.10;99.90
20070;DHT22;10195;50.868;4.382;2023-01-31T09:25:38;7.30;99.90
20070;DHT22;10195;50.868;4.382;2023-01-31T09:28:03;7.40;99.90
20070;DHT22;10195;50.868;4.382;2023-01-31T09:30:29;7.40;99.90
20070;DHT22;10195;50.868;4.382;2023-01-31T09:32:55;7.40;99.90
20070;DHT22;10195;50.868;4.382;2023-01-31T09:35:20;7.70;99.90
20070;DHT22;10195;50.868;4.382;2023-01-31T09:37:46;7.60;99.90
20070;DHT22;10195;50.868;4.382;2023-01-31T09:40:20;7.60;99.90
20070;DHT22;10195;50.868;4.382;2023-01-31T09:42:48;7.70;99.90
20070;DHT22;10195;50.868;4.382;2023-01-31T09:45:27;7.60;99.90
20070;DHT22;10195;50.868;4.382;2023-01-31T09:47:56;7.70;99.90
20070;DHT22;10195;50.868;4.382;2023-01-31T09:50:24;7.80;99.90
20070;DHT22;10195;50.868;4.382;2023-01-31T09:52:52;7.70;99.90
20070;DHT22;10195;50.868;4.382;2023-01-31T09:55:21;7.50;99.90
20070;DHT22;10195;50.868;4.382;2023-01-31T09:57:59;7.60;99.90
20070;DHT22;10195;50.868;4.382;2023-01-31T10:00:38;7.40;99.90
20070;DHT22;10195;50.868;4.382;2023-01-31T10:06:24;7.40;99.90
20070;DHT22;10195;50.868;4.382;2023-01-31T10:09:06;7.40;99.90
20070;DHT22;10195;50.868;4.382;2023-01-31T10:11:39;7.40;99.90
20070;DHT22;10195;50.868;4.382;2023-01-31T10:14:32;7.30;99.90
20070;DHT22;10195;50.868;4.382;2023-01-31T10:16:58;7.40;99.90
20070;DHT22;10195;50.868;4.382;2023-01-31T10:19:29;7.60;99.90
20070;DHT22;10195;50.868;4.382;2023-01-31T10:22:02;7.60;99.90
20070;DHT22;10195;50.868;4.382;2023-01-31T10:24:33;7.80;99.90
20070;DHT22;10195;50.868;4.382;2023-01-31T10:27:09;7.80;99.90
20070;DHT22;10195;50.868;4.382;2023-01-31T10:29:42;7.90;99.90
20070;DHT22;10195;50.868;4.382;2023-01-31T10:35:01;7.90;99.90
20070;DHT22;10195;50.868;4.382;2023-01-31T10:37:36;7.80;99.90
20070;DHT22;10195;50.868;4.382;2023-01-31T10:40:13;7.90;99.90
20070;DHT22;10195;50.868;4.382;2023-01-31T10:42:41;8.20;99.90
20070;DHT22;10195;50.868;4.382;2023-01-31T10:47:56;8.70;99.90
20070;DHT22;10195;50.868;4.382;2023-01-31T10:51:01;9.00;99.90
20070;DHT22;10195;50.868;4.382;2023-01-31T10:56:30;8.80;99.90
20070;DHT22;10195;50.868;4.382;2023-01-31T10:58:59;9.00;99.90
20070;DHT22;10195;50.868;4.382;2023-01-31T11:01:25;9.20;99.90
20070;DHT22;10195;50.868;4.382;2023-01-31T11:03:53;9.20;99.90
20070;DHT22;10195;50.868;4.382;2023-01-31T11:06:21;9.10;99.90
20070;DHT22;10195;50.868;4.382;2023-01-31T11:08:56;9.10;99.90
20070;DHT22;10195;50.868;4.382;2023-01-31T11:11:24;9.10;99.90
20070;DHT22;10195;50.868;4.382;2023-01-31T11:14:17;9.20;99.90
20070;DHT22;10195;50.868;4.382;2023-01-31T11:16:43;9.40;99.90
20070;DHT22;10195;50.868;4.382;2023-01-31T11:19:20;9.20;99.90
20070;DHT22;10195;50.868;4.382;2023-01-31T11:21:50;9.30;99.90
20070;DHT22;10195;50.868;4.382;2023-01-31T11:24:20;9.30;99.90
20070;DHT22;10195;50.868;4.382;2023-01-31T11:26:56;9.40;99.90
20070;DHT22;10195;50.868;4.382;2023-01-31T11:29:44;9.10;99.90
20070;DHT22;10195;50.868;4.382;2023-01-31T11:32:23;9.00;99.90
20070;DHT22;10195;50.868;4.382;2023-01-31T11:34:56;9.20;99.90
20070;DHT22;10195;50.868;4.382;2023-01-31T11:37:22;9.50;99.90
20070;DHT22;10195;50.868;4.382;2023-01-31T11:42:53;9.30;99.90
20070;DHT22;10195;50.868;4.382;2023-01-31T11:45:22;9.40;99.90
20070;DHT22;10195;50.868;4.382;2023-01-31T11:47:52;9.50;99.90
20070;DHT22;10195;50.868;4.382;2023-01-31T11:52:56;9.20;99.90
20070;DHT22;10195;50.868;4.382;2023-01-31T11:55:23;9.20;99.90
20070;DHT22;10195;50.868;4.382;2023-01-31T11:57:55;9.10;99.90
20070;DHT22;10195;50.868;4.382;2023-01-31T12:00:28;9.10;99.90
20070;DHT22;10195;50.868;4.382;2023-01-31T12:03:04;9.20;99.90
20070;DHT22;10195;50.868;4.382;2023-01-31T12:05:35;9.20;99.90
20070;DHT22;10195;50.868;4.382;2023-01-31T12:08:02;9.10;99.90
20070;DHT22;10195;50.868;4.382;2023-01-31T12:10:31;9.20;99.90
20070;DHT22;10195;50.868;4.382;2023-01-31T12:13:15;9.20;99.90
20070;DHT22;10195;50.868;4.382;2023-01-31T12:15:50;9.10;99.90
20070;DHT22;10195;50.868;4.382;2023-01-31T12:21:24;9.20;99.90
20070;DHT22;10195;50.868;4.382;2023-01-31T12:26:54;8.90;99.90
20070;DHT22;10195;50.868;4.382;2023-01-31T12:29:45;8.80;99.90
20070;DHT22;10195;50.868;4.382;2023-01-31T12:46:38;8.60;99.90
20070;DHT22;10195;50.868;4.382;2023-01-31T12:57:38;8.80;99.90
20070;DHT22;10195;50.868;4.382;2023-01-31T13:00:28;8.80;99.90
20070;DHT22;10195;50.868;4.382;2023-01-31T13:03:15;8.90;99.90
20070;DHT22;10195;50.868;4.382;2023-01-31T13:05:50;9.00;99.90
20070;DHT22;10195;50.868;4.382;2023-01-31T13:08:18;9.00;99.90
20070;DHT22;10195;50.868;4.382;2023-01-31T13:13:29;9.10;99.90
20070;DHT22;10195;50.868;4.382;2023-01-31T13:16:04;9.10;99.90
20070;DHT22;10195;50.868;4.382;2023-01-31T13:18:34;9.10;99.90
20070;DHT22;10195;50.868;4.382;2023-01-31T13:21:03;9.00;99.90
20070;DHT22;10195;50.868;4.382;2023-01-31T13:23:37;8.70;99.90
20070;DHT22;10195;50.868;4.382;2023-01-31T13:26:23;8.70;99.90
20070;DHT22;10195;50.868;4.382;2023-01-31T13:29:05;8.60;99.90
20070;DHT22;10195;50.868;4.382;2023-01-31T13:31:47;8.50;99.90
20070;DHT22;10195;50.868;4.382;2023-01-31T13:34:23;8.60;99.90
20070;DHT22;10195;50.868;4.382;2023-01-31T13:37:06;8.50;99.90
20070;DHT22;10195;50.868;4.382;2023-01-31T13:39:42;8.40;99.90
20070;DHT22;10195;50.868;4.382;2023-01-31T13:42:14;8.50;99.90
20070;DHT22;10195;50.868;4.382;2023-01-31T13:44:41;8.50;99.90
20070;DHT22;10195;50.868;4.382;2023-01-31T13:47:15;8.40;99.90
20070;DHT22;10195;50.868;4.382;2023-01-31T13:50:36;8.40;99.90
20070;DHT22;10195;50.868;4.382;2023-01-31T13:52:50;8.40;99.90
20070;DHT22;10195;50.868;4.382;2023-01-31T13:55:38;8.40;99.90
20070;DHT22;10195;50.868;4.382;2023-01-31T13:58:07;8.50;99.90
20070;DHT22;10195;50.868;4.382;2023-01-31T14:00:58;8.50;99.90
20070;DHT22;10195;50.868;4.382;2023-01-31T14:03:26;8.60;99.90
20070;DHT22;10195;50.868;4.382;2023-01-31T14:08:33;8.70;99.90
20070;DHT22;10195;50.868;4.382;2023-01-31T14:13:42;8.70;99.90
20070;DHT22;10195;50.868;4.382;2023-01-31T14:18:59;8.80;99.90
20070;DHT22;10195;50.868;4.382;2023-01-31T14:24:01;8.90;99.90
20070;DHT22;10195;50.868;4.382;2023-01-31T14:29:25;9.00;99.90
20070;DHT22;10195;50.868;4.382;2023-01-31T14:31:53;9.00;99.90
20070;DHT22;10195;50.868;4.382;2023-01-31T14:34:23;8.90;99.90
20070;DHT22;10195;50.868;4.382;2023-01-31T14:37:12;8.90;99.90
20070;DHT22;10195;50.868;4.382;2023-01-31T14:40:21;9.00;99.90
20070;DHT22;10195;50.868;4.382;2023-01-31T14:58:58;9.30;99.90
20070;DHT22;10195;50.868;4.382;2023-01-31T15:01:32;9.40;99.90
20070;DHT22;10195;50.868;4.382;2023-01-31T15:03:59;9.40;99.90
20070;DHT22;10195;50.868;4.382;2023-01-31T15:06:35;9.30;99.90
20070;DHT22;10195;50.868;4.382;2023-01-31T15:11:51;9.20;99.90
20070;DHT22;10195;50.868;4.382;2023-01-31T15:14:41;9.30;99.90
20070;DHT22;10195;50.868;4.382;2023-01-31T15:17:23;9.10;99.90
20070;DHT22;10195;50.868;4.382;2023-01-31T15:20:12;9.20;99.90
20070;DHT22;10195;50.868;4.382;2023-01-31T15:22:40;9.30;99.90
20070;DHT22;10195;50.868;4.382;2023-01-31T15:25:32;9.30;99.90
20070;DHT22;10195;50.868;4.382;2023-01-31T15:27:59;9.40;99.90
20070;DHT22;10195;50.868;4.382;2023-01-31T15:30:27;9.40;99.90
20070;DHT22;10195;50.868;4.382;2023-01-31T15:33:01;9.50;99.90
20070;DHT22;10195;50.868;4.382;2023-01-31T15:35:55;9.50;99.90
20070;DHT22;10195;50.868;4.382;2023-01-31T15:38:33;9.60;99.90
20070;DHT22;10195;50.868;4.382;2023-01-31T15:41:19;9.60;99.90
20070;DHT22;10195;50.868;4.382;2023-01-31T15:43:48;9.70;99.90
20070;DHT22;10195;50.868;4.382;2023-01-31T15:46:26;9.60;99.90
20070;DHT22;10195;50.868;4.382;2023-01-31T15:48:52;9.60;99.90
20070;DHT22;10195;50.868;4.382;2023-01-31T15:51:18;9.60;99.90
20070;DHT22;10195;50.868;4.382;2023-01-31T15:53:44;9.70;99.90
20070;DHT22;10195;50.868;4.382;2023-01-31T15:56:19;9.60;99.90
20070;DHT22;10195;50.868;4.382;2023-01-31T15:58:48;9.50;99.90
20070;DHT22;10195;50.868;4.382;2023-01-31T16:01:15;9.40;99.90
20070;DHT22;10195;50.868;4.382;2023-01-31T16:03:47;9.40;99.90
20070;DHT22;10195;50.868;4.382;2023-01-31T16:08:53;9.30;99.90
20070;DHT22;10195;50.868;4.382;2023-01-31T16:11:19;9.30;99.90
20070;DHT22;10195;50.868;4.382;2023-01-31T16:13:46;9.30;99.90
20070;DHT22;10195;50.868;4.382;2023-01-31T16:16:13;9.30;99.90
20070;DHT22;10195;50.868;4.382;2023-01-31T16:18:47;9.30;99.90
20070;DHT22;10195;50.868;4.382;2023-01-31T16:24:14;9.30;99.90
20070;DHT22;10195;50.868;4.382;2023-01-31T16:27:12;9.30;99.90
20070;DHT22;10195;50.868;4.382;2023-01-31T16:29:50;9.30;99.90
20070;DHT22;10195;50.868;4.382;2023-01-31T16:32:31;9.20;99.90
20070;DHT22;10195;50.868;4.382;2023-01-31T16:37:37;9.00;99.90
20070;DHT22;10195;50.868;4.382;2023-01-31T16:42:44;9.00;99.90
20070;DHT22;10195;50.868;4.382;2023-01-31T16:45:29;9.00;99.90
20070;DHT22;10195;50.868;4.382;2023-01-31T17:03:02;9.00;99.90
20070;DHT22;10195;50.868;4.382;2023-01-31T17:07:44;9.10;99.90
20070;DHT22;10195;50.868;4.382;2023-01-31T17:10:21;9.10;99.90
20070;DHT22;10195;50.868;4.382;2023-01-31T17:12:55;9.00;99.90
20070;DHT22;10195;50.868;4.382;2023-01-31T17:15:22;9.10;99.90
20070;DHT22;10195;50.868;4.382;2023-01-31T17:17:47;9.20;99.90
20070;DHT22;10195;50.868;4.382;2023-01-31T17:20:15;9.10;99.90
20070;DHT22;10195;50.868;4.382;2023-01-31T17:22:41;9.20;99.90
20070;DHT22;10195;50.868;4.382;2023-01-31T17:25:17;9.20;99.90
20070;DHT22;10195;50.868;4.382;2023-01-31T17:27:44;9.20;99.90
20070;DHT22;10195;50.868;4.382;2023-01-31T17:30:11;9.20;99.90
20070;DHT22;10195;50.868;4.382;2023-01-31T17:32:37;9.20;99.90
20070;DHT22;10195;50.868;4.382;2023-01-31T17:35:36;9.20;99.90
20070;DHT22;10195;50.868;4.382;2023-01-31T17:38:03;9.20;99.90
20070;DHT22;10195;50.868;4.382;2023-01-31T17:40:29;9.10;99.90
20070;DHT22;10195;50.868;4.382;2023-01-31T17:43:00;9.10;99.90
20070;DHT22;10195;50.868;4.382;2023-01-31T17:45:26;9.10;99.90
20070;DHT22;10195;50.868;4.382;2023-01-31T17:47:52;9.10;99.90
20070;DHT22;10195;50.868;4.382;2023-01-31T17:50:20;9.10;99.90
20070;DHT22;10195;50.868;4.382;2023-01-31T17:52:46;9.10;99.90
20070;DHT22;10195;50.868;4.382;2023-01-31T17:55:13;9.10;99.90
20070;DHT22;10195;50.868;4.382;2023-01-31T17:57:38;9.10;99.90
20070;DHT22;10195;50.868;4.382;2023-01-31T18:00:06;9.00;99.90
20070;DHT22;10195;50.868;4.382;2023-01-31T18:02:35;9.00;99.90
20070;DHT22;10195;50.868;4.382;2023-01-31T18:05:00;9.00;99.90
20070;DHT22;10195;50.868;4.382;2023-01-31T18:07:26;9.00;99.90
20070;DHT22;10195;50.868;4.382;2023-01-31T18:09:52;9.00;99.90
20070;DHT22;10195;50.868;4.382;2023-01-31T18:12:17;9.00;99.90
20070;DHT22;10195;50.868;4.382;2023-01-31T18:14:43;9.10;99.90
20070;DHT22;10195;50.868;4.382;2023-01-31T18:17:09;9.10;99.90
20070;DHT22;10195;50.868;4.382;2023-01-31T18:19:34;9.10;99.90
20070;DHT22;10195;50.868;4.382;2023-01-31T18:22:00;9.20;99.90
20070;DHT22;10195;50.868;4.382;2023-01-31T18:24:26;9.30;99.90
20070;DHT22;10195;50.868;4.382;2023-01-31T18:26:52;9.30;99.90
20070;DHT22;10195;50.868;4.382;2023-01-31T18:29:18;9.30;99.90
20070;DHT22;10195;50.868;4.382;2023-01-31T18:31:46;9.20;99.90
20070;DHT22;10195;50.868;4.382;2023-01-31T18:34:11;9.10;99.90
20070;DHT22;10195;50.868;4.382;2023-01-31T18:36:37;9.20;99.90
20070;DHT22;10195;50.868;4.382;2023-01-31T18:39:04;9.20;99.90
20070;DHT22;10195;50.868;4.382;2023-01-31T18:41:30;9.20;99.90
20070;DHT22;10195;50.868;4.382;2023-01-31T18:43:55;9.20;99.90